createdAt,value
2023-03-31T00:00:25.083Z,53.71
2023-03-31T00:02:53.985Z,54.10
2023-03-31T00:05:21.392Z,53.97
2023-03-31T00:07:48.559Z,53.82
2023-03-31T00:10:19.268Z,54.40
2023-03-31T00:12:46.455Z,54.78
2023-03-31T00:15:14.690Z,54.42
2023-03-31T00:17:43.478Z,54.41
2023-03-31T00:20:12.381Z,55.40
2023-03-31T00:22:46.689Z,55.14
2023-03-31T00:25:14.407Z,54.87
2023-03-31T00:27:44.050Z,54.69
2023-03-31T00:30:14.266Z,55.17
2023-03-31T00:32:41.615Z,55.17
2023-03-31T00:35:09.332Z,54.75
2023-03-31T00:37:36.337Z,54.61
2023-03-31T00:40:09.946Z,55.00
2023-03-31T00:42:41.305Z,55.16
2023-03-31T00:45:30.231Z,55.56
2023-03-31T00:48:05.908Z,55.35
2023-03-31T00:50:41.207Z,55.47
2023-03-31T00:53:14.424Z,55.50
2023-03-31T00:55:47.151Z,55.15
2023-03-31T00:58:20.039Z,55.22
2023-03-31T01:00:54.245Z,55.31
2023-03-31T01:03:25.142Z,55.05
2023-03-31T01:05:57.596Z,55.69
2023-03-31T01:08:27.783Z,55.84
2023-03-31T01:10:59.519Z,56.00
2023-03-31T01:13:27.508Z,56.06
2023-03-31T01:15:55.802Z,55.71
2023-03-31T01:18:24.195Z,55.58
2023-03-31T01:21:25.877Z,55.58
2023-03-31T01:24:35.651Z,56.02
2023-03-31T01:27:33.648Z,55.70
2023-03-31T01:30:53.079Z,55.67
2023-03-31T01:34:12.497Z,56.34
2023-03-31T01:37:37.687Z,56.40
2023-03-31T01:40:26.129Z,56.18
2023-03-31T01:43:03.054Z,56.50
2023-03-31T01:45:50.113Z,56.43
2023-03-31T01:48:23.574Z,56.50
2023-03-31T01:50:58.223Z,56.18
2023-03-31T01:53:35.938Z,56.42
2023-03-31T01:56:14.087Z,56.42
2023-03-31T01:58:49.282Z,56.50
2023-03-31T02:01:26.142Z,56.29
2023-03-31T02:03:58.220Z,56.35
2023-03-31T02:06:35.110Z,56.82
2023-03-31T02:09:08.787Z,56.84
2023-03-31T02:11:40.142Z,56.70
2023-03-31T02:14:14.112Z,56.72
2023-03-31T02:16:47.598Z,56.53
2023-03-31T02:19:19.179Z,56.33
2023-03-31T02:21:49.783Z,56.36
2023-03-31T02:24:21.841Z,56.64
2023-03-31T02:26:58.021Z,57.12
2023-03-31T02:29:25.221Z,56.53
2023-03-31T02:32:01.175Z,56.64
2023-03-31T02:34:28.251Z,57.41
2023-03-31T02:36:55.575Z,57.38
2023-03-31T02:39:28.061Z,57.05
2023-03-31T02:41:57.379Z,57.20
2023-03-31T02:44:25.105Z,56.94
2023-03-31T02:46:52.867Z,56.93
2023-03-31T02:49:21.609Z,56.95
2023-03-31T02:52:09.523Z,56.60
2023-03-31T02:55:01.812Z,56.68
2023-03-31T02:57:58.212Z,56.51
2023-03-31T03:00:41.266Z,56.46
2023-03-31T03:03:29.429Z,56.63
2023-03-31T03:06:13.565Z,56.81
2023-03-31T03:09:01.817Z,56.86
2023-03-31T03:11:39.342Z,57.28
2023-03-31T03:14:23.612Z,56.87
2023-03-31T03:16:59.838Z,57.25
2023-03-31T03:19:26.821Z,57.31
2023-03-31T03:21:54.495Z,57.26
2023-03-31T03:24:22.801Z,57.21
2023-03-31T03:26:49.725Z,57.27
2023-03-31T03:29:17.888Z,56.92
2023-03-31T03:31:44.826Z,57.03
2023-03-31T03:34:11.694Z,56.94
2023-03-31T03:36:39.676Z,56.84
2023-03-31T03:39:07.981Z,56.88
2023-03-31T03:41:36.157Z,56.64
2023-03-31T03:44:03.215Z,56.73
2023-03-31T03:46:31.594Z,56.89
2023-03-31T03:48:58.687Z,56.73
2023-03-31T03:51:25.694Z,56.42
2023-03-31T03:53:52.612Z,56.46
2023-03-31T03:56:19.601Z,56.42
2023-03-31T03:58:46.542Z,56.32
2023-03-31T04:01:14.270Z,56.30
2023-03-31T04:03:42.497Z,56.49
2023-03-31T04:06:09.613Z,56.71
2023-03-31T04:08:36.899Z,56.42
2023-03-31T04:11:09.736Z,56.58
2023-03-31T04:13:36.597Z,56.68
2023-03-31T04:16:03.859Z,56.54
2023-03-31T04:18:30.906Z,57.02
2023-03-31T04:21:04.831Z,57.39
2023-03-31T04:23:31.972Z,57.15
2023-03-31T04:25:59.292Z,56.80
2023-03-31T04:28:26.664Z,57.29
2023-03-31T04:30:58.864Z,57.24
2023-03-31T04:33:25.785Z,57.04
2023-03-31T04:35:52.836Z,56.96
2023-03-31T04:38:23.233Z,57.25
2023-03-31T04:40:52.685Z,57.28
2023-03-31T04:43:21.140Z,57.28
2023-03-31T04:45:48.073Z,57.39
2023-03-31T04:48:15.195Z,57.13
2023-03-31T04:50:42.440Z,57.22
2023-03-31T04:53:09.483Z,57.21
2023-03-31T04:55:37.707Z,57.13
2023-03-31T04:58:04.604Z,56.89
2023-03-31T05:00:31.480Z,56.95
2023-03-31T05:02:59.989Z,57.11
2023-03-31T05:05:27.281Z,56.84
2023-03-31T05:07:54.155Z,57.30
2023-03-31T05:10:21.663Z,57.37
2023-03-31T05:12:50.337Z,57.03
2023-03-31T05:15:17.539Z,57.29
2023-03-31T05:17:44.850Z,57.23
2023-03-31T05:20:13.545Z,57.56
2023-03-31T05:22:43.310Z,57.37
2023-03-31T05:25:14.435Z,57.76
2023-03-31T05:27:41.369Z,57.96
2023-03-31T05:30:10.930Z,57.85
2023-03-31T05:32:37.901Z,58.12
2023-03-31T05:35:05.930Z,57.98
2023-03-31T05:37:32.884Z,58.25
2023-03-31T05:39:59.947Z,58.19
2023-03-31T05:42:26.919Z,58.55
2023-03-31T05:44:53.792Z,58.43
2023-03-31T05:47:23.145Z,58.66
2023-03-31T05:49:50.901Z,58.87
2023-03-31T05:52:18.077Z,59.29
2023-03-31T05:54:45.185Z,59.49
2023-03-31T05:57:12.284Z,59.88
2023-03-31T05:59:40.787Z,59.48
2023-03-31T06:02:11.145Z,60.10
2023-03-31T06:04:39.752Z,59.84
2023-03-31T06:07:06.668Z,59.77
2023-03-31T06:09:33.531Z,60.25
2023-03-31T06:12:00.624Z,60.95
2023-03-31T06:14:28.058Z,60.34
2023-03-31T06:16:57.383Z,60.70
2023-03-31T06:19:24.838Z,61.00
2023-03-31T06:21:53.068Z,61.19
2023-03-31T06:24:19.912Z,61.44
2023-03-31T06:26:46.801Z,61.30
2023-03-31T06:29:13.711Z,61.50
2023-03-31T06:31:40.839Z,61.72
2023-03-31T06:34:07.907Z,61.41
2023-03-31T06:36:35.096Z,61.49
2023-03-31T06:39:03.639Z,61.70
2023-03-31T06:41:30.643Z,61.48
2023-03-31T06:43:57.542Z,61.57
2023-03-31T06:46:24.513Z,61.48
2023-03-31T06:48:51.472Z,61.45
2023-03-31T06:51:18.414Z,61.42
2023-03-31T06:53:45.272Z,62.10
2023-03-31T06:56:13.513Z,61.64
2023-03-31T06:58:40.456Z,61.37
2023-03-31T07:01:07.939Z,61.49
2023-03-31T07:03:35.480Z,61.58
2023-03-31T07:06:02.507Z,61.57
2023-03-31T07:08:29.459Z,61.51
2023-03-31T07:10:59.331Z,61.13
2023-03-31T07:13:28.704Z,61.08
2023-03-31T07:15:56.235Z,61.50
2023-03-31T07:18:25.982Z,61.56
2023-03-31T07:20:53.287Z,61.81
2023-03-31T07:23:21.077Z,61.75
2023-03-31T07:25:48.605Z,61.85
2023-03-31T07:28:16.290Z,61.72
2023-03-31T07:30:44.723Z,62.02
2023-03-31T07:33:11.664Z,61.93
2023-03-31T07:35:40.819Z,61.59
2023-03-31T07:38:09.788Z,61.52
2023-03-31T07:40:37.916Z,61.54
2023-03-31T07:43:05.898Z,61.89
2023-03-31T07:45:34.289Z,61.57
2023-03-31T07:48:03.051Z,61.68
2023-03-31T07:50:30.396Z,61.79
2023-03-31T07:52:57.827Z,61.59
2023-03-31T07:55:26.261Z,61.86
2023-03-31T07:57:53.594Z,61.84
2023-03-31T08:00:22.002Z,62.13
2023-03-31T08:02:50.095Z,61.87
2023-03-31T08:05:21.682Z,61.99
2023-03-31T08:07:50.643Z,61.58
2023-03-31T08:10:23.752Z,61.79
2023-03-31T08:12:50.765Z,61.68
2023-03-31T08:15:18.707Z,61.99
2023-03-31T08:17:45.901Z,62.04
2023-03-31T08:20:13.213Z,61.97
2023-03-31T08:22:41.712Z,62.02
2023-03-31T08:25:09.933Z,61.44
2023-03-31T08:27:40.018Z,61.34
2023-03-31T08:30:11.145Z,61.10
2023-03-31T08:32:38.737Z,60.96
2023-03-31T08:35:08.413Z,60.84
2023-03-31T08:37:35.721Z,60.39
2023-03-31T08:40:05.764Z,60.34
2023-03-31T08:42:42.060Z,59.99
2023-03-31T08:45:20.226Z,59.96
2023-03-31T08:47:52.043Z,59.77
2023-03-31T08:50:25.003Z,59.82
2023-03-31T08:53:03.910Z,59.67
2023-03-31T08:55:49.801Z,59.54
2023-03-31T08:58:32.321Z,59.45
2023-03-31T09:01:09.809Z,59.03
2023-03-31T09:03:51.908Z,58.96
2023-03-31T09:06:34.322Z,59.26
2023-03-31T09:09:08.154Z,59.51
2023-03-31T09:11:44.010Z,59.50
2023-03-31T09:14:30.414Z,59.67
2023-03-31T09:17:15.980Z,59.92
2023-03-31T09:19:50.785Z,59.91
2023-03-31T09:22:24.146Z,60.21
2023-03-31T09:24:59.100Z,60.50
2023-03-31T09:27:32.507Z,60.65
2023-03-31T09:30:05.334Z,58.91
2023-03-31T09:32:33.879Z,59.75
2023-03-31T09:35:16.140Z,59.99
2023-03-31T09:37:43.420Z,59.87
2023-03-31T09:40:18.038Z,59.77
2023-03-31T09:42:48.711Z,59.74
2023-03-31T09:45:18.029Z,59.57
2023-03-31T09:47:51.335Z,59.49
2023-03-31T09:50:19.043Z,59.25
2023-03-31T09:52:56.220Z,59.32
2023-03-31T09:55:40.200Z,58.92
2023-03-31T09:58:14.289Z,58.89
2023-03-31T10:01:01.700Z,59.40
2023-03-31T10:03:36.520Z,59.35
2023-03-31T10:06:11.043Z,59.19
2023-03-31T10:08:43.055Z,59.20
2023-03-31T10:11:12.856Z,59.13
2023-03-31T10:13:48.174Z,58.40
2023-03-31T10:16:23.887Z,58.41
2023-03-31T10:18:51.024Z,58.19
2023-03-31T10:21:23.983Z,57.91
2023-03-31T10:23:52.224Z,58.05
2023-03-31T10:26:24.110Z,58.33
2023-03-31T10:28:55.254Z,57.99
2023-03-31T10:31:34.586Z,57.98
2023-03-31T10:34:07.903Z,57.95
2023-03-31T10:36:36.084Z,57.64
2023-03-31T10:39:07.753Z,57.66
2023-03-31T10:41:35.798Z,57.68
2023-03-31T10:44:05.100Z,57.97
2023-03-31T10:46:47.136Z,58.21
2023-03-31T10:49:26.799Z,58.28
2023-03-31T10:51:56.468Z,58.21
2023-03-31T10:54:24.339Z,58.07
2023-03-31T10:56:56.444Z,57.85
2023-03-31T10:59:58.700Z,57.79
2023-03-31T11:02:57.367Z,57.99
2023-03-31T11:05:34.627Z,58.21
2023-03-31T11:08:27.147Z,58.00
2023-03-31T11:11:13.128Z,57.80
2023-03-31T11:13:51.297Z,57.80
2023-03-31T11:16:29.228Z,57.46
2023-03-31T11:19:17.007Z,57.46
2023-03-31T11:22:00.406Z,57.12
2023-03-31T11:24:51.435Z,56.76
2023-03-31T11:27:41.161Z,56.92
2023-03-31T11:30:20.583Z,56.58
2023-03-31T11:33:08.494Z,56.35
2023-03-31T11:35:59.523Z,55.71
2023-03-31T11:39:00.103Z,54.49
2023-03-31T11:41:34.926Z,53.96
2023-03-31T11:44:05.788Z,52.92
2023-03-31T11:46:41.390Z,52.03
2023-03-31T11:49:19.005Z,50.37
2023-03-31T11:51:54.653Z,50.67
2023-03-31T11:54:31.625Z,50.20
2023-03-31T11:57:10.368Z,49.91
2023-03-31T11:59:40.977Z,50.28
2023-03-31T12:02:20.012Z,48.89
2023-03-31T12:04:53.423Z,48.20
2023-03-31T12:07:29.443Z,48.21
2023-03-31T12:10:05.820Z,46.96
2023-03-31T12:12:43.770Z,47.27
2023-03-31T12:15:23.822Z,46.23
2023-03-31T12:18:00.833Z,47.19
2023-03-31T12:20:41.218Z,47.85
2023-03-31T12:23:18.816Z,47.37
2023-03-31T12:25:55.506Z,47.35
2023-03-31T12:28:27.393Z,47.50
2023-03-31T12:30:57.772Z,47.96
2023-03-31T12:33:31.336Z,48.02
2023-03-31T12:36:19.052Z,48.50
2023-03-31T12:39:01.150Z,49.07
2023-03-31T12:41:38.459Z,48.93
2023-03-31T12:44:30.809Z,49.10
2023-03-31T12:47:21.266Z,49.67
2023-03-31T12:50:16.280Z,49.82
2023-03-31T12:52:56.785Z,50.42
2023-03-31T12:55:37.813Z,50.12
2023-03-31T12:58:41.688Z,49.77
2023-03-31T13:01:16.520Z,49.26
2023-03-31T13:04:05.500Z,48.97
2023-03-31T13:06:56.221Z,48.96
2023-03-31T13:09:52.956Z,49.33
2023-03-31T13:12:25.370Z,49.30
2023-03-31T13:14:55.257Z,48.83
2023-03-31T13:17:29.536Z,49.27
2023-03-31T13:20:16.633Z,48.50
2023-03-31T13:22:48.331Z,48.76
2023-03-31T13:25:51.612Z,47.95
2023-03-31T13:28:42.267Z,47.69
2023-03-31T13:31:17.349Z,47.08
2023-03-31T13:33:57.981Z,46.88
2023-03-31T13:36:54.662Z,46.95
2023-03-31T13:40:06.618Z,47.68
2023-03-31T13:43:27.136Z,48.04
2023-03-31T13:46:45.302Z,48.90
2023-03-31T13:49:44.690Z,49.41
2023-03-31T13:52:12.775Z,49.90
2023-03-31T13:55:23.719Z,50.05
2023-03-31T13:58:34.612Z,51.09
2023-03-31T14:01:44.509Z,51.21
2023-03-31T14:04:35.835Z,50.56
2023-03-31T14:07:09.523Z,50.38
2023-03-31T14:09:46.962Z,50.76
2023-03-31T14:12:23.042Z,50.42
2023-03-31T14:14:54.919Z,50.13
2023-03-31T14:17:27.629Z,50.22
2023-03-31T14:20:18.616Z,49.27
2023-03-31T14:22:58.987Z,49.18
2023-03-31T14:25:44.149Z,49.00
2023-03-31T14:28:33.356Z,47.85
2023-03-31T14:31:20.285Z,47.60
2023-03-31T14:34:12.111Z,48.01
2023-03-31T14:36:51.103Z,46.25
2023-03-31T14:39:24.120Z,46.90
2023-03-31T14:41:53.507Z,45.83
2023-03-31T14:44:21.046Z,45.75
2023-03-31T14:46:51.030Z,45.89
2023-03-31T14:49:25.356Z,44.59
2023-03-31T14:51:54.227Z,45.03
2023-03-31T14:54:22.134Z,44.77
2023-03-31T14:56:54.769Z,44.55
2023-03-31T14:59:28.902Z,44.65
2023-03-31T15:01:59.783Z,45.48
2023-03-31T15:04:42.138Z,44.88
2023-03-31T15:07:11.894Z,44.85
2023-03-31T15:09:49.542Z,45.07
2023-03-31T15:12:20.553Z,44.97
2023-03-31T15:14:51.991Z,45.08
2023-03-31T15:17:25.494Z,45.28
2023-03-31T15:19:56.029Z,45.77
2023-03-31T15:22:25.961Z,46.75
2023-03-31T15:24:53.654Z,47.61
2023-03-31T15:27:38.019Z,47.74
2023-03-31T15:30:09.325Z,48.42
2023-03-31T15:32:39.891Z,48.50
2023-03-31T15:38:12.682Z,49.30
2023-03-31T15:40:43.918Z,49.38
2023-03-31T15:43:25.513Z,49.87
2023-03-31T15:45:54.520Z,50.00
2023-03-31T15:48:29.515Z,50.31
2023-03-31T15:51:01.300Z,50.39
2023-03-31T15:53:35.735Z,50.44
2023-03-31T15:56:03.797Z,50.58
2023-03-31T15:58:54.249Z,50.88
2023-03-31T16:01:23.835Z,50.85
2023-03-31T16:03:55.382Z,50.97
2023-03-31T16:06:37.857Z,51.17
2023-03-31T16:09:08.218Z,51.15
2023-03-31T16:11:42.221Z,51.14
2023-03-31T16:14:17.959Z,51.20
2023-03-31T16:16:55.090Z,51.36
2023-03-31T16:19:28.823Z,51.21
2023-03-31T16:22:01.957Z,51.32
2023-03-31T16:24:33.516Z,51.61
2023-03-31T16:27:06.133Z,51.67
2023-03-31T16:29:35.391Z,51.86
2023-03-31T16:32:12.190Z,51.59
2023-03-31T16:34:59.346Z,51.80
2023-03-31T16:37:26.839Z,51.75
2023-03-31T16:39:54.319Z,51.85
2023-03-31T16:42:21.839Z,51.96
2023-03-31T16:44:59.938Z,52.12
2023-03-31T16:47:36.554Z,52.28
2023-03-31T16:50:07.464Z,52.24
2023-03-31T16:52:36.956Z,52.44
2023-03-31T16:55:04.836Z,52.41
2023-03-31T16:57:32.199Z,52.51
2023-03-31T16:59:59.634Z,52.66
2023-03-31T17:02:26.784Z,52.72
2023-03-31T17:04:56.549Z,52.78
2023-03-31T17:07:27.678Z,53.13
2023-03-31T17:09:54.621Z,53.25
2023-03-31T17:12:21.742Z,53.65
2023-03-31T17:14:48.601Z,53.62
2023-03-31T17:17:17.802Z,53.70
2023-03-31T17:19:45.172Z,53.75
2023-03-31T17:22:12.587Z,53.88
2023-03-31T17:24:41.894Z,54.35
2023-03-31T17:27:08.791Z,54.41
2023-03-31T17:29:35.816Z,54.26
2023-03-31T17:32:02.866Z,54.47
2023-03-31T17:34:30.229Z,54.98
2023-03-31T17:36:57.272Z,54.80
2023-03-31T17:39:24.377Z,55.38
2023-03-31T17:41:52.794Z,55.62
2023-03-31T17:44:19.902Z,55.60
2023-03-31T17:46:46.963Z,55.91
2023-03-31T17:49:14.040Z,56.17
2023-03-31T17:51:40.926Z,56.51
2023-03-31T17:54:07.882Z,56.49
2023-03-31T17:56:34.748Z,56.40
2023-03-31T17:59:03.913Z,56.65
2023-03-31T18:01:30.985Z,57.00
2023-03-31T18:03:58.441Z,56.83
2023-03-31T18:06:27.688Z,57.26
2023-03-31T18:08:56.818Z,56.87
2023-03-31T18:11:23.767Z,57.26
2023-03-31T18:13:50.996Z,57.10
2023-03-31T18:16:19.844Z,57.13
2023-03-31T18:18:48.144Z,57.13
2023-03-31T18:21:15.380Z,57.15
2023-03-31T18:23:42.287Z,57.32
2023-03-31T18:26:11.919Z,57.09
2023-03-31T18:28:40.758Z,57.25
2023-03-31T18:31:09.163Z,56.91
2023-03-31T18:33:37.906Z,57.08
2023-03-31T18:36:05.907Z,57.33
2023-03-31T18:38:34.308Z,57.28
2023-03-31T18:41:01.672Z,57.26
2023-03-31T18:43:29.641Z,57.67
2023-03-31T18:45:58.664Z,57.63
2023-03-31T18:48:25.707Z,58.03
2023-03-31T18:50:54.198Z,57.72
2023-03-31T18:53:23.478Z,57.96
2023-03-31T18:55:51.916Z,58.07
2023-03-31T18:58:19.429Z,58.37
2023-03-31T19:00:46.472Z,58.88
2023-03-31T19:03:14.142Z,58.57
2023-03-31T19:05:41.556Z,58.49
2023-03-31T19:08:10.042Z,58.60
2023-03-31T19:10:37.157Z,58.63
2023-03-31T19:13:04.584Z,58.67
2023-03-31T19:15:33.062Z,58.44
2023-03-31T19:18:00.325Z,58.48
2023-03-31T19:20:27.689Z,58.31
2023-03-31T19:22:55.834Z,58.75
2023-03-31T19:25:30.827Z,60.11
2023-03-31T19:27:57.949Z,60.70
2023-03-31T19:30:25.136Z,61.24
2023-03-31T19:32:52.173Z,60.88
2023-03-31T19:35:20.622Z,60.54
2023-03-31T19:37:48.579Z,60.67
2023-03-31T19:40:15.789Z,60.55
2023-03-31T19:42:44.319Z,61.18
2023-03-31T19:45:11.606Z,61.31
2023-03-31T19:47:38.662Z,61.23
2023-03-31T19:50:08.340Z,61.19
2023-03-31T19:52:36.491Z,60.83
2023-03-31T19:55:04.941Z,60.77
2023-03-31T19:57:32.574Z,60.77
2023-03-31T20:00:02.666Z,60.92
2023-03-31T20:02:31.465Z,61.17
2023-03-31T20:04:58.564Z,61.33
2023-03-31T20:07:25.746Z,60.92
2023-03-31T20:09:52.921Z,60.84
2023-03-31T20:12:19.929Z,60.98
2023-03-31T20:14:47.479Z,60.17
2023-03-31T20:17:16.740Z,60.43
2023-03-31T20:19:44.869Z,60.18
2023-03-31T20:22:11.954Z,60.00
2023-03-31T20:24:38.812Z,59.96
2023-03-31T20:27:05.754Z,59.82
2023-03-31T20:29:32.826Z,60.09
2023-03-31T20:31:59.827Z,60.07
2023-03-31T20:34:28.335Z,59.91
2023-03-31T20:36:56.335Z,60.37
2023-03-31T20:39:23.235Z,60.13
2023-03-31T20:41:50.413Z,60.21
2023-03-31T20:44:17.355Z,60.57
2023-03-31T20:46:45.242Z,60.56
2023-03-31T20:49:13.015Z,60.37
2023-03-31T20:51:42.606Z,60.59
2023-03-31T20:54:10.005Z,60.43
2023-03-31T20:56:40.321Z,60.14
2023-03-31T20:59:10.975Z,60.14
2023-03-31T21:01:38.631Z,60.16
2023-03-31T21:04:08.764Z,59.90
2023-03-31T21:06:39.567Z,60.10
2023-03-31T21:09:08.943Z,60.02
2023-03-31T21:11:36.009Z,59.83
2023-03-31T21:14:03.319Z,60.10
2023-03-31T21:16:30.255Z,60.18
2023-03-31T21:18:59.642Z,60.15
2023-03-31T21:21:27.712Z,59.87
2023-03-31T21:23:55.396Z,59.69
2023-03-31T21:26:24.912Z,59.68
2023-03-31T21:28:56.446Z,59.88
2023-03-31T21:31:25.668Z,60.24
2023-03-31T21:33:57.339Z,59.95
2023-03-31T21:36:25.530Z,59.88
2023-03-31T21:38:55.573Z,59.92
2023-03-31T21:41:27.816Z,60.14
2023-03-31T21:43:55.485Z,59.96
2023-03-31T21:46:26.917Z,59.81
2023-03-31T21:48:55.096Z,60.13
2023-03-31T21:51:23.512Z,59.96
2023-03-31T21:53:54.945Z,59.75
2023-03-31T21:56:24.344Z,59.74
2023-03-31T21:58:51.606Z,59.98
2023-03-31T22:01:19.204Z,59.94
2023-03-31T22:03:46.972Z,60.63
2023-03-31T22:06:14.845Z,60.25
2023-03-31T22:08:41.770Z,60.71
2023-03-31T22:11:11.613Z,60.80
2023-03-31T22:13:40.878Z,61.23
2023-03-31T22:16:17.332Z,61.25
2023-03-31T22:18:45.244Z,61.12
2023-03-31T22:21:18.553Z,61.13
2023-03-31T22:23:45.917Z,61.42
2023-03-31T22:26:13.517Z,60.83
2023-03-31T22:28:41.912Z,61.15
2023-03-31T22:31:09.135Z,61.04
2023-03-31T22:33:36.151Z,61.81
2023-03-31T22:36:03.341Z,61.70
2023-03-31T22:38:30.410Z,61.49
2023-03-31T22:40:57.323Z,61.73
2023-03-31T22:43:24.600Z,62.00
2023-03-31T22:45:53.960Z,62.65
2023-03-31T22:48:21.016Z,61.86
2023-03-31T22:50:47.980Z,62.24
2023-03-31T22:53:14.843Z,61.97
2023-03-31T22:55:42.998Z,62.27
2023-03-31T22:58:21.410Z,62.28
2023-03-31T23:00:57.116Z,62.25
2023-03-31T23:03:24.382Z,62.42
2023-03-31T23:05:51.334Z,62.59
2023-03-31T23:08:18.397Z,63.00
2023-03-31T23:10:55.648Z,62.95
2023-03-31T23:13:22.580Z,63.67
2023-03-31T23:15:49.612Z,63.30
2023-03-31T23:18:18.225Z,63.35
2023-03-31T23:20:45.795Z,63.35
2023-03-31T23:23:12.708Z,63.40
2023-03-31T23:25:39.672Z,63.29
2023-03-31T23:28:07.118Z,62.94
2023-03-31T23:30:34.066Z,62.90
2023-03-31T23:33:00.958Z,62.92
2023-03-31T23:35:29.363Z,63.06
2023-03-31T23:37:56.387Z,62.50
2023-03-31T23:40:23.465Z,62.54
2023-03-31T23:42:50.464Z,62.20
2023-03-31T23:45:18.460Z,62.75
2023-03-31T23:47:45.414Z,62.95
2023-03-31T23:50:12.584Z,62.49
2023-03-31T23:52:40.901Z,62.30
2023-03-31T23:55:08.762Z,62.42
2023-03-31T23:57:35.910Z,62.50
